Relevés horaires Titlis (Suisse)


Relevés horaires à Titlis - Samedi 12 Juin 2021
Heure UTC1 Température [°C] Vent [km/h] Hum. [%] Pres.4 [hPa] Visi. [Km] Nébu. [octa] Préc.5 [mm] Cond.
2m. Res. Ros. Dir.2 Vit. Moy. Raf.3
23:00 1.8 -4.3 1.8 NO 31.5 -- 44.4 100 700(-0.1/3h) -- -- -- --
22:00 2.1 -3.1 2.1 NO 24.1 -- 48.2 100 700(0.4/3h) -- -- -- --
21:00 2.8 -0.9 2.8 NNO 14.8 -- 51.9 100 700(0.2/3h) -- -- -- --
20:00 2.9 -2.5 2.9 ONO 27.8 -- 50.0 100 700(0.3/3h) -- -- -- --
19:00 2.7 -3.2 2.5 ONO 33.3 -- 44.4 99 700(-0.1/3h) -- -- -- --
18:00 2.3 -3.1 2.0 ONO 25.9 -- 44.4 98 700(0.1/3h) -- -- -- --
17:00 3.2 -1.7 3.2 ONO 24.1 -- 38.9 100 700(0.0/3h) -- -- -- --
16:00 3.0 -2.2 3.0 ONO 25.9 -- 40.7 100 700(0.3/3h) -- -- -- --
15:00 2.7 -2.5 2.5 ONO 25.9 -- 44.4 99 700(0.3/3h) -- -- -- --
14:00 2.9 -1.9 1.8 ONO 22.2 -- 33.3 92 700(0.5/3h) -- -- -- --
13:00 3.7 0.9 2.6 O 11.1 -- 24.1 92 700(0.5/3h) -- -- -- --
12:00 4.0 1.2 1.7 O 11.1 -- 25.9 85 700(0.7/3h) -- -- -- --
11:00 3.0 -0.7 -- ONO 14.8 -- 22.2 -- 700(0.8/3h) -- -- -- --
10:00 2.7 -0.3 -2.6 ONO 11.1 -- 18.5 68 700(0.7/3h) -- -- -- --
09:00 2.6 -0.8 -3.3 ONO 13.0 -- 20.4 65 700(0.8/3h) -- -- -- --
08:00 2.5 -1.3 -2.7 NO 14.8 -- 20.4 68 700(0.7/3h) -- -- -- --
07:00 3.2 -0.1 -3.2 NO 13.0 -- 16.7 63 700(0.7/3h) -- -- -- --
06:00 3.0 1.6 -4.1 NNO 5.6 -- 18.5 59 700(0.3/3h) -- -- -- --
05:00 3.6 1.2 -5.5 NO 9.3 -- 11.1 51 700(0.2/3h) -- -- -- --
04:00 3.0 3.0 -5.7 SO 3.7 -- 5.6 53 700(-0.2/3h) -- -- -- --
03:00 3.0 3.0 -5.8 ONO 1.9 -- 18.5 52 700(-0.3/3h) -- -- -- --
02:00 3.9 2.6 -6.3 ESE 5.6 -- 18.5 47 700(-0.6/3h) -- -- -- --
01:00 3.5 -0.1 -3.7 E 14.8 -- 18.5 59 700(-0.2/3h) -- -- -- --
00:00 3.7 0.5 -6.7 NE 13.0 -- 20.4 46 700(0.2/3h) -- -- -- --

1 Coordinated Universal Time. Actuellement il est 14:00 locale et 12:00 UTC.

2 Le vent souffle depuis la direction indiquée vers la direction oposée.

3 Les rafales max. sont disponible 40 min après l'heure du relevé.

4 Pour les stations d'altitude (plus de 600m) le géopotentiel du niveau le plus proche de la pression obligatoire est indiqué.

5 Les stations disposant d'un diffuseur peuvent indiquer "trace". Cela signifie que des précipitations ont touchés le sol mais que la quantité est inférieure à 0.1 mm.

Copyright

Les données affichées sur cette page sont la propriété exclusive de Météo Suisse.

Récapitulatif de la journée
Température [°C] Vent [km/h] Ensoleillement4 [h] Precipitations totale5 [mm] Pression [Hpa]
Min1 Max.2 Moy.3 Max. Min Max.
1.3 4.1 0 51.9 9 h 24 min 0 700.0 700.0

1 Température minimale relevée entre 18:00 UTC la veille et 18:00 UTC le jour donné.

2 Température maximale relevée entre 06:00 UTC le jour donné et 06:00 UTC le lendemain.

3 Vent moyen de la journée basé sur les relevés horaires.

4 Ensoleillement en heures relevé entre 06:00 UTC la veille et 06:00 UTC le jour donné.

5 Précipitations totales tombées entre 06:00 UTC la jour donné et 06:00 UTC le lendemain.

Graphiques horaires